Kezdőlap
METAR-TAF:

METAR-TAF

Repülőterek :

Aupaluk, Québec, Kanada

földrajzi szélesség: 59-17-48N, földrajzi hosszúság: 069-35-59W, magasság: 35 m

Jelenlegi meteorológiai megfigyelések

A jelentés 12 órával és 0 perccel ezelõtt készült, 19:00 UTC
Nyugati szél 19 kt széllökések: 28 kt
Hőmérséklet 5°C
Páratartalom 70%
Légköri nyomás 1000 hPa
Látótávolság: 24.1 km
Kevés felhő 1500 lábon
Szakadozott felhőzet 2600 lábon

METAR: CYLA 251900Z 26019G28KT 15SM FEW015 BKN026 05/00 A2953 RMK SC1SC7 SC TR LAST STFD OBS/NXT 261200Z SLP005

Idő: 03:00 (07:00 UTC)


TAF: hiányzik

Meteorológiai megfigyelések és előrejelzések több, mint 4000 repülőtéren (METAR és TAF jelentéseket).

A térképen piros és sárga pontok jelzik az elérhető meteorológiai állomásokat.

Mozgassa az egeret a pont fölött, hogy megjelenjen az állomás neve.

Azután kattintson az időjárási megfigyelések és előrejelzések megtekintéséhez.

A térkép megváltoztatása: kattintson a fekete keresztel jelölt zöld gombra ráközelítéshez, a vonallal jelölt zöld gombra távolításhoz, vagy a zöld nyilakra a szomszédos térképek eléréséhez.


METAR-TAF: